Time;durP1;ratioP1;P1;durP2;ratioP2;P2;SDS_P1;SDS_P2;PMS_P1;PMS_P2;Temp;Humidity;BMP_temperature;BMP_pressure;BME280_temperature;BME280_humidity;BME280_pressure;Samples;Min_cycle;Max_cycle;Signal;HPM_P1;HPM_P2
2021/12/14 00:01:34;;;;;;;2.85;1.02;;;8.20;99.90;;;;;;5189682;28;20384;-78
2021/12/14 00:04:14;;;;;;;1.95;1.00;;;8.30;99.90;;;;;;5189713;28;20168;-78
2021/12/14 00:06:48;;;;;;;1.52;1.15;;;8.20;99.90;;;;;;5189609;28;20116;-78
2021/12/14 00:09:33;;;;;;;6.53;1.63;;;8.20;99.90;;;;;;5189591;28;20060;-79
2021/12/14 00:17:33;;;;;;;2.53;1.67;;;8.30;99.90;;;;;;5189783;28;20514;-79
2021/12/14 00:20:16;;;;;;;3.03;1.83;;;8.30;99.90;;;;;;5189343;28;20026;-78
2021/12/14 00:25:40;;;;;;;4.05;1.70;;;8.30;99.90;;;;;;5189381;28;20457;-78
2021/12/14 00:28:42;;;;;;;4.50;1.65;;;8.40;99.90;;;;;;5189356;28;20071;-77
2021/12/14 00:31:16;;;;;;;7.72;2.22;;;8.40;99.90;;;;;;5187152;28;20390;-78
2021/12/14 00:33:51;;;;;;;3.10;1.85;;;8.40;99.90;;;;;;5189033;28;20508;-77
2021/12/14 00:36:23;;;;;;;4.07;1.85;;;8.40;99.90;;;;;;5189111;28;20481;-77
2021/12/14 00:38:56;;;;;;;3.85;2.30;;;8.50;99.90;;;;;;5188979;28;20033;-77
2021/12/14 00:41:32;;;;;;;4.40;2.38;;;8.40;99.90;;;;;;5189094;28;20055;-77
2021/12/14 00:44:04;;;;;;;4.20;2.33;;;8.50;99.90;;;;;;5188784;28;20041;-78
2021/12/14 00:46:36;;;;;;;5.72;3.38;;;8.40;99.90;;;;;;5188604;28;20081;-78
2021/12/14 00:49:09;;;;;;;5.07;2.55;;;8.50;99.90;;;;;;5188744;28;20034;-79
2021/12/14 00:51:40;;;;;;;5.30;3.00;;;8.40;99.90;;;;;;5188779;28;20014;-77
2021/12/14 00:54:14;;;;;;;3.10;2.47;;;8.40;99.90;;;;;;5188587;28;20052;-78
2021/12/14 00:56:47;;;;;;;5.20;2.58;;;8.40;99.90;;;;;;5188638;28;20116;-77
2021/12/14 00:59:20;;;;;;;3.55;2.85;;;8.40;99.90;;;;;;5188503;28;20017;-77
2021/12/14 01:01:57;;;;;;;5.68;2.55;;;8.50;99.90;;;;;;5188638;28;20033;-78
2021/12/14 01:04:34;;;;;;;4.65;2.85;;;8.40;99.90;;;;;;5188509;28;20061;-78
2021/12/14 01:07:08;;;;;;;5.93;2.58;;;8.40;99.90;;;;;;5187321;28;20059;-78
2021/12/14 01:09:43;;;;;;;4.60;1.98;;;8.40;99.90;;;;;;5188399;28;20072;-78
2021/12/14 01:12:29;;;;;;;9.90;2.05;;;8.40;99.90;;;;;;5188440;28;20028;-78
2021/12/14 01:15:43;;;;;;;3.40;1.90;;;8.40;99.90;;;;;;5187979;28;20046;-78
2021/12/14 01:21:13;;;;;;;2.67;1.98;;;8.40;99.90;;;;;;5188520;28;20504;-79
2021/12/14 01:23:46;;;;;;;6.10;2.50;;;8.50;99.90;;;;;;5188122;28;20105;-78
2021/12/14 01:26:19;;;;;;;5.10;2.83;;;8.50;99.90;;;;;;5188045;28;20112;-78
2021/12/14 01:28:50;;;;;;;4.88;2.88;;;8.40;99.90;;;;;;5187966;28;20030;-79
2021/12/14 01:31:29;;;;;;;4.13;2.80;;;8.40;99.90;;;;;;5187971;28;20033;-79
2021/12/14 01:34:21;;;;;;;4.30;2.30;;;8.40;99.90;;;;;;5187811;28;20040;-78
2021/12/14 01:36:57;;;;;;;4.72;2.83;;;8.50;99.90;;;;;;5188018;28;20026;-79
2021/12/14 01:42:13;;;;;;;5.57;3.28;;;8.50;99.90;;;;;;5187840;28;20041;-79
2021/12/14 01:44:50;;;;;;;6.57;2.75;;;8.50;99.90;;;;;;5187284;28;20116;-78
2021/12/14 01:47:49;;;;;;;8.45;3.25;;;8.50;99.90;;;;;;5187698;28;20036;-78
2021/12/14 01:50:31;;;;;;;5.25;2.90;;;8.50;99.90;;;;;;5187744;28;20026;-78
2021/12/14 01:53:05;;;;;;;6.28;3.42;;;8.50;99.90;;;;;;5187569;28;20036;-78
2021/12/14 01:55:38;;;;;;;4.28;2.78;;;8.40;99.90;;;;;;5187514;28;20034;-79
2021/12/14 01:58:10;;;;;;;8.85;2.50;;;8.50;99.90;;;;;;5187454;28;20492;-78
2021/12/14 02:00:54;;;;;;;5.22;2.33;;;8.50;99.90;;;;;;5187502;28;20415;-78
2021/12/14 02:03:32;;;;;;;7.05;2.78;;;8.50;99.90;;;;;;5187318;28;20116;-78
2021/12/14 02:06:03;;;;;;;3.42;2.50;;;8.50;99.90;;;;;;5187383;28;20025;-79
2021/12/14 02:08:36;;;;;;;7.60;2.80;;;8.50;99.90;;;;;;5187411;28;20037;-78
2021/12/14 02:11:08;;;;;;;6.47;2.55;;;8.50;99.90;;;;;;5187346;28;20029;-78
2021/12/14 02:13:43;;;;;;;5.32;2.90;;;8.50;99.90;;;;;;5187024;28;20385;-78
2021/12/14 02:16:18;;;;;;;9.07;3.50;;;8.60;99.90;;;;;;5187252;28;20178;-79
2021/12/14 02:18:53;;;;;;;3.50;2.03;;;8.60;99.90;;;;;;5186619;28;20064;-78
2021/12/14 02:21:24;;;;;;;5.78;2.40;;;8.60;99.90;;;;;;5187088;28;20038;-79
2021/12/14 02:23:59;;;;;;;4.53;2.60;;;8.60;99.90;;;;;;5186961;28;20079;-78
2021/12/14 02:26:33;;;;;;;2.88;1.70;;;8.60;99.90;;;;;;5187175;28;20045;-79
2021/12/14 02:29:07;;;;;;;4.65;2.30;;;8.60;99.90;;;;;;5186943;28;20022;-79
2021/12/14 02:31:40;;;;;;;2.47;1.70;;;8.60;99.90;;;;;;5187000;28;20025;-78
2021/12/14 02:34:11;;;;;;;4.70;1.70;;;8.50;99.90;;;;;;5186690;28;20109;-78
2021/12/14 02:36:45;;;;;;;4.43;1.55;;;8.60;99.90;;;;;;5186898;28;20087;-78
2021/12/14 02:39:47;;;;;;;3.95;2.20;;;8.60;99.90;;;;;;5186664;28;20428;-78
2021/12/14 02:42:22;;;;;;;2.55;0.90;;;8.60;99.90;;;;;;5186637;28;20013;-78
2021/12/14 02:44:55;;;;;;;2.13;1.08;;;8.60;99.90;;;;;;5186276;28;20104;-79
2021/12/14 02:47:27;;;;;;;3.70;1.30;;;8.70;99.90;;;;;;5186810;28;20046;-79
2021/12/14 02:49:58;;;;;;;4.72;1.20;;;8.60;99.90;;;;;;5186631;28;20025;-79
2021/12/14 02:52:35;;;;;;;2.10;1.10;;;8.60;99.90;;;;;;5186600;28;20369;-79
2021/12/14 02:55:32;;;;;;;3.17;1.17;;;8.60;99.90;;;;;;5186426;28;20060;-79
2021/12/14 02:58:05;;;;;;;4.30;1.45;;;8.50;99.90;;;;;;5183814;28;20481;-79
2021/12/14 03:00:45;;;;;;;3.72;1.50;;;8.60;99.90;;;;;;5168759;28;20512;-79
2021/12/14 03:03:17;;;;;;;2.40;1.17;;;8.60;99.90;;;;;;5186517;28;20095;-79
2021/12/14 03:05:49;;;;;;;2.75;1.20;;;8.60;99.90;;;;;;5186365;28;20381;-78
2021/12/14 03:08:27;;;;;;;5.32;1.10;;;8.60;99.90;;;;;;5186381;28;20029;-78
2021/12/14 03:11:11;;;;;;;2.92;1.48;;;8.70;99.90;;;;;;5186371;28;20053;-79
2021/12/14 03:13:47;;;;;;;2.03;1.05;;;8.70;99.90;;;;;;5186024;28;20026;-80
2021/12/14 03:16:26;;;;;;;2.58;1.27;;;8.70;99.90;;;;;;5186380;28;20056;-79
2021/12/14 03:18:59;;;;;;;4.88;1.20;;;8.80;99.90;;;;;;5186194;28;20053;-80
2021/12/14 03:21:33;;;;;;;2.88;1.23;;;8.80;99.90;;;;;;5186266;28;20030;-79
2021/12/14 03:24:10;;;;;;;3.20;0.93;;;8.80;99.90;;;;;;5168640;28;20032;-79
2021/12/14 03:26:47;;;;;;;2.97;0.95;;;8.80;99.90;;;;;;5186198;28;20030;-79
2021/12/14 03:29:26;;;;;;;4.55;0.90;;;8.80;99.90;;;;;;5186248;28;20756;-80
2021/12/14 03:31:58;;;;;;;4.38;1.13;;;8.80;99.90;;;;;;5190037;28;20034;-79
2021/12/14 03:34:36;;;;;;;2.63;0.90;;;8.80;99.90;;;;;;5190183;28;20444;-79
2021/12/14 03:37:19;;;;;;;0.88;0.50;;;8.80;99.90;;;;;;5190285;28;20080;-80
2021/12/14 03:39:57;;;;;;;3.88;0.73;;;8.80;99.90;;;;;;5190071;28;20025;-80
2021/12/14 03:42:37;;;;;;;3.47;1.10;;;8.80;99.90;;;;;;5190105;28;20061;-80
2021/12/14 03:45:16;;;;;;;;;;;8.70;99.90;;;;;;5190113;28;20463;-79
2021/12/14 03:47:54;;;;;;;4.20;1.00;;;8.70;99.90;;;;;;5190036;28;19955;-79
2021/12/14 03:50:31;;;;;;;1.85;0.80;;;8.70;99.90;;;;;;5189932;28;20032;-80
2021/12/14 03:53:03;;;;;;;6.40;0.88;;;8.70;99.90;;;;;;5189906;28;20017;-80
2021/12/14 03:55:38;;;;;;;1.98;0.68;;;8.70;99.90;;;;;;5189779;28;20037;-79
2021/12/14 03:58:23;;;;;;;1.65;0.47;;;8.70;99.90;;;;;;5190038;28;20434;-78
2021/12/14 04:00:57;;;;;;;2.60;0.70;;;8.60;99.90;;;;;;5189853;28;20022;-79
2021/12/14 04:03:30;;;;;;;1.00;0.50;;;8.70;99.90;;;;;;5189638;28;20015;-80
2021/12/14 04:06:02;;;;;;;1.77;1.20;;;8.60;99.90;;;;;;5189792;28;20435;-78
2021/12/14 04:08:34;;;;;;;2.60;1.05;;;8.60;99.90;;;;;;5189645;28;20029;-79
2021/12/14 04:11:07;;;;;;;3.40;1.05;;;8.60;99.90;;;;;;5189636;28;20025;-79
2021/12/14 04:13:42;;;;;;;2.80;1.65;;;8.70;99.90;;;;;;5189279;28;20022;-79
2021/12/14 04:16:17;;;;;;;3.83;1.90;;;8.60;99.90;;;;;;5189316;28;20096;-79
2021/12/14 04:18:48;;;;;;;2.30;1.40;;;8.60;99.90;;;;;;5189361;28;20033;-79
2021/12/14 04:21:20;;;;;;;2.63;1.50;;;8.70;99.90;;;;;;5189281;28;20084;-79
2021/12/14 04:23:52;;;;;;;2.05;1.17;;;8.70;99.90;;;;;;5189277;28;20489;-79
2021/12/14 04:26:23;;;;;;;4.28;1.33;;;8.70;99.90;;;;;;5171740;28;20065;-79
2021/12/14 04:29:03;;;;;;;2.35;1.40;;;8.70;99.90;;;;;;5189245;28;20091;-79
2021/12/14 04:31:36;;;;;;;1.88;1.27;;;8.70;99.90;;;;;;5189199;28;20041;-80
2021/12/14 04:34:08;;;;;;;4.65;1.70;;;8.70;99.90;;;;;;5189036;28;20369;-79
2021/12/14 04:36:40;;;;;;;4.63;1.73;;;8.70;99.90;;;;;;5189079;28;20037;-80
2021/12/14 04:53:44;;;;;;;2.63;1.17;;;8.70;99.90;;;;;;5189099;28;20021;-80
2021/12/14 04:56:23;;;;;;;7.05;1.90;;;8.80;99.90;;;;;;5188708;28;20092;-80
2021/12/14 04:59:08;;;;;;;2.75;1.10;;;8.70;99.90;;;;;;5188660;28;20037;-80
2021/12/14 05:01:43;;;;;;;3.28;1.27;;;8.80;99.90;;;;;;5188796;28;20487;-80
2021/12/14 05:04:21;;;;;;;3.25;1.40;;;8.80;99.90;;;;;;5188558;28;20037;-80
2021/12/14 05:06:57;;;;;;;2.92;1.30;;;8.80;99.90;;;;;;5188660;28;20022;-80
2021/12/14 05:09:32;;;;;;;4.53;1.48;;;8.80;99.90;;;;;;5188521;28;20358;-80
2021/12/14 05:12:06;;;;;;;3.33;1.80;;;8.70;99.90;;;;;;5188389;28;20026;-80
2021/12/14 05:14:38;;;;;;;2.97;1.42;;;8.70;99.90;;;;;;5188022;28;20033;-79
2021/12/14 05:17:14;;;;;;;2.53;1.60;;;8.80;99.90;;;;;;5188310;28;20061;-79
2021/12/14 05:19:46;;;;;;;2.38;1.25;;;8.70;99.90;;;;;;5170648;28;20454;-80
2021/12/14 05:22:21;;;;;;;1.30;0.90;;;8.70;99.90;;;;;;5188141;28;20544;-79
2021/12/14 05:24:56;;;;;;;3.05;1.30;;;8.80;99.90;;;;;;5188185;28;20067;-80
2021/12/14 05:27:39;;;;;;;2.90;1.60;;;8.80;99.90;;;;;;5188076;28;20037;-79
2021/12/14 05:30:13;;;;;;;3.53;1.10;;;8.80;99.90;;;;;;5188115;28;20412;-80
2021/12/14 05:32:45;;;;;;;2.22;1.02;;;8.90;99.90;;;;;;5187982;28;20468;-80
2021/12/14 05:35:18;;;;;;;3.72;1.42;;;8.90;99.90;;;;;;5187844;28;20030;-80
2021/12/14 05:37:52;;;;;;;2.83;1.13;;;8.90;99.90;;;;;;5187766;28;20473;-79
2021/12/14 05:43:11;;;;;;;2.13;1.42;;;8.90;99.90;;;;;;5187865;28;20029;-80
2021/12/14 05:45:45;;;;;;;3.15;1.50;;;8.90;99.90;;;;;;5187442;28;20053;-80
2021/12/14 05:48:19;;;;;;;2.63;1.50;;;8.90;99.90;;;;;;5187898;28;20030;-80
2021/12/14 05:50:55;;;;;;;2.85;1.98;;;8.90;99.90;;;;;;5187668;28;20029;-80
2021/12/14 05:53:35;;;;;;;3.55;2.40;;;8.90;99.90;;;;;;5187058;28;20018;-80
2021/12/14 05:56:35;;;;;;;4.97;3.03;;;8.90;99.90;;;;;;5187511;28;20037;-80
2021/12/14 05:59:06;;;;;;;5.13;2.97;;;8.90;99.90;;;;;;5174671;28;20312;-80
2021/12/14 06:01:36;;;;;;;2.70;1.88;;;9.00;99.90;;;;;;5187549;28;20068;-80
2021/12/14 06:04:09;;;;;;;3.33;2.33;;;9.00;99.90;;;;;;5186157;28;20113;-80
2021/12/14 06:06:44;;;;;;;4.22;1.85;;;9.00;99.90;;;;;;5187449;28;20022;-80
2021/12/14 06:09:23;;;;;;;3.78;1.08;;;9.10;99.90;;;;;;5187398;28;20026;-79
2021/12/14 06:11:58;;;;;;;2.55;1.50;;;9.10;99.90;;;;;;5187247;28;20057;-80
2021/12/14 06:14:30;;;;;;;2.33;1.63;;;9.20;99.90;;;;;;5186926;28;20033;-80
2021/12/14 06:17:05;;;;;;;2.75;1.55;;;9.20;99.90;;;;;;5187163;28;20087;-80
2021/12/14 06:19:39;;;;;;;3.65;1.95;;;9.30;99.90;;;;;;5187137;28;20358;-81
2021/12/14 06:22:16;;;;;;;6.32;2.13;;;9.40;99.90;;;;;;5186972;28;20069;-80
2021/12/14 06:24:51;;;;;;;14.18;3.97;;;9.60;99.90;;;;;;5186926;28;20014;-81
2021/12/14 06:27:24;;;;;;;11.73;4.45;;;9.70;99.90;;;;;;5187028;28;20355;-80
2021/12/14 06:30:02;;;;;;;11.18;2.70;;;9.80;99.90;;;;;;5187018;28;20044;-81
2021/12/14 06:32:37;;;;;;;14.38;3.20;;;9.90;99.90;;;;;;5187419;28;20044;-81
2021/12/14 06:35:18;;;;;;;15.20;2.97;;;9.90;99.90;;;;;;5187212;28;20061;-81
2021/12/14 06:38:08;;;;;;;;;;;10.00;99.90;;;;;;5187956;28;20014;-81
2021/12/14 06:40:39;;;;;;;;;;;10.00;99.90;;;;;;5169930;28;20315;-81
2021/12/14 06:43:23;;;;;;;8.48;2.95;;;10.10;99.90;;;;;;5187193;28;19905;-81
2021/12/14 06:46:02;;;;;;;8.90;2.33;;;10.10;99.90;;;;;;5186883;28;20475;-81
2021/12/14 06:48:39;;;;;;;9.40;2.88;;;10.10;99.90;;;;;;5186996;28;20026;-81
2021/12/14 06:51:18;;;;;;;12.32;2.90;;;10.20;99.90;;;;;;5187281;28;20389;-80
2021/12/14 06:53:53;;;;;;;9.55;2.35;;;10.00;99.90;;;;;;5186941;28;20018;-81
2021/12/14 06:56:29;;;;;;;9.07;2.25;;;10.10;99.90;;;;;;5187137;28;20034;-81
2021/12/14 06:59:10;;;;;;;14.55;3.42;;;10.10;99.90;;;;;;5186881;28;20022;-81
2021/12/14 07:02:06;;;;;;;12.73;2.40;;;10.20;99.90;;;;;;5187008;28;20434;-81
2021/12/14 07:04:48;;;;;;;11.90;2.30;;;10.20;99.90;;;;;;5185959;28;20026;-81
2021/12/14 07:07:23;;;;;;;8.50;2.42;;;10.20;99.90;;;;;;5186816;28;20028;-80
2021/12/14 07:09:58;;;;;;;12.30;2.20;;;10.20;99.90;;;;;;5169160;28;20060;-81
2021/12/14 07:12:35;;;;;;;15.10;1.98;;;10.30;99.90;;;;;;5186686;28;20029;-80
2021/12/14 07:15:15;;;;;;;8.80;2.40;;;10.40;99.90;;;;;;5168864;28;20038;-82
2021/12/14 07:17:59;;;;;;;11.52;1.77;;;10.30;99.90;;;;;;5169140;28;20026;-81
2021/12/14 07:20:35;;;;;;;10.70;1.95;;;10.40;99.90;;;;;;5168954;28;20036;-80
2021/12/14 07:23:30;;;;;;;10.90;2.20;;;10.40;99.90;;;;;;5168556;28;20041;-81
2021/12/14 07:26:06;;;;;;;10.20;2.28;;;10.40;99.90;;;;;;5186666;28;20018;-81
2021/12/14 07:28:43;;;;;;;12.57;2.08;;;10.40;99.90;;;;;;5186656;28;20036;-81
2021/12/14 07:31:24;;;;;;;15.02;2.20;;;10.50;99.90;;;;;;5186517;28;20022;-81
2021/12/14 07:33:59;;;;;;;13.02;2.58;;;10.30;99.90;;;;;;5186530;28;20026;-81
2021/12/14 07:36:36;;;;;;;11.55;2.05;;;10.50;99.90;;;;;;5186498;28;20038;-81
2021/12/14 07:39:11;;;;;;;6.57;1.77;;;10.50;99.90;;;;;;5186394;28;20029;-80
2021/12/14 07:41:50;;;;;;;8.30;1.98;;;10.40;99.90;;;;;;5186665;28;20029;-80
2021/12/14 07:44:43;;;;;;;9.32;2.15;;;10.40;99.90;;;;;;5187939;28;20040;-81
2021/12/14 07:47:18;;;;;;;8.35;2.10;;;10.50;99.90;;;;;;5186422;28;20576;-81
2021/12/14 07:49:56;;;;;;;9.52;2.10;;;10.50;99.90;;;;;;5186292;28;20022;-81
2021/12/14 07:52:36;;;;;;;10.27;1.85;;;10.50;99.90;;;;;;5186682;28;20420;-79
2021/12/14 07:55:12;;;;;;;14.70;1.92;;;10.50;99.90;;;;;;5186453;28;20034;-81
2021/12/14 07:57:45;;;;;;;11.43;1.90;;;10.60;99.90;;;;;;5186569;28;20053;-80
2021/12/14 08:00:19;;;;;;;9.20;2.22;;;10.50;99.90;;;;;;5186306;28;20037;-81
2021/12/14 08:02:53;;;;;;;8.30;1.90;;;10.70;99.90;;;;;;5186246;28;20137;-81
2021/12/14 08:05:31;;;;;;;15.32;2.28;;;10.50;99.90;;;;;;5186164;28;20440;-81
2021/12/14 08:08:09;;;;;;;9.88;1.92;;;10.60;99.90;;;;;;5174423;28;20381;-81
2021/12/14 08:10:49;;;;;;;13.18;2.67;;;10.70;99.90;;;;;;5186357;28;20029;-80
2021/12/14 08:13:23;;;;;;;8.35;1.83;;;10.70;99.90;;;;;;5186381;28;20509;-81
2021/12/14 08:15:58;;;;;;;11.90;1.92;;;10.80;99.90;;;;;;5186614;28;20041;-81
2021/12/14 08:18:32;;;;;;;13.90;1.83;;;10.90;99.90;;;;;;5190161;28;20030;-82
2021/12/14 08:21:11;;;;;;;8.00;2.13;;;10.90;99.90;;;;;;5189737;28;20037;-81
2021/12/14 08:23:49;;;;;;;10.05;2.22;;;10.90;99.90;;;;;;5189768;28;20030;-81
2021/12/14 08:26:22;;;;;;;10.02;2.30;;;11.00;99.90;;;;;;5170027;28;20106;-80
2021/12/14 08:28:55;;;;;;;9.13;2.38;;;11.10;99.90;;;;;;5184997;28;20109;-78
2021/12/14 08:31:42;;;;;;;11.23;2.47;;;11.00;99.90;;;;;;5189017;28;20026;-81
2021/12/14 08:34:23;;;;;;;13.70;2.35;;;11.10;99.90;;;;;;5188133;28;20049;-81
2021/12/14 08:37:08;;;;;;;8.90;2.15;;;11.10;99.90;;;;;;5189525;28;20058;-80
2021/12/14 08:39:49;;;;;;;11.57;2.70;;;11.00;99.90;;;;;;5188348;28;20392;-80
2021/12/14 08:42:36;;;;;;;9.45;2.17;;;10.90;99.90;;;;;;5189060;28;20116;-80
2021/12/14 08:45:27;;;;;;;9.55;2.60;;;11.00;99.90;;;;;;5188696;28;20080;-82
2021/12/14 08:48:06;;;;;;;17.67;3.33;;;11.00;99.90;;;;;;5189061;28;20397;-81
2021/12/14 08:50:56;;;;;;;13.80;3.00;;;11.00;99.90;;;;;;5188944;28;20025;-81
2021/12/14 08:53:34;;;;;;;12.35;2.40;;;10.90;99.90;;;;;;5189012;28;20026;-80
2021/12/14 08:56:08;;;;;;;16.10;3.53;;;10.90;99.90;;;;;;5188791;28;20038;-81
2021/12/14 08:58:40;;;;;;;14.98;2.67;;;11.00;99.90;;;;;;5188722;28;20401;-81
2021/12/14 09:01:16;;;;;;;10.45;2.78;;;11.00;99.90;;;;;;5188789;28;20018;-79
2021/12/14 09:04:13;;;;;;;11.35;2.78;;;10.90;99.90;;;;;;5188735;28;20025;-80
2021/12/14 09:06:47;;;;;;;12.43;2.85;;;10.90;99.90;;;;;;5188641;28;20030;-81
2021/12/14 09:09:21;;;;;;;14.27;2.63;;;10.80;99.90;;;;;;5171007;28;20517;-80
2021/12/14 09:12:06;;;;;;;9.85;2.22;;;10.90;99.90;;;;;;5188533;28;20076;-80
2021/12/14 09:14:38;;;;;;;15.40;2.80;;;10.80;99.90;;;;;;5188105;28;20497;-81
2021/12/14 09:17:12;;;;;;;14.13;2.63;;;10.90;99.90;;;;;;5188520;28;20469;-81
2021/12/14 09:19:48;;;;;;;10.55;2.33;;;10.90;99.90;;;;;;5188381;28;20109;-81
2021/12/14 09:22:24;;;;;;;8.90;1.83;;;10.90;99.90;;;;;;5188257;28;20022;-81
2021/12/14 09:24:56;;;;;;;12.20;3.10;;;11.00;99.90;;;;;;5188308;28;20037;-81
2021/12/14 09:27:30;;;;;;;13.60;2.63;;;11.00;99.90;;;;;;5187313;28;20116;-80
2021/12/14 09:30:04;;;;;;;12.65;3.40;;;10.90;99.90;;;;;;5187977;28;20077;-81
2021/12/14 09:32:36;;;;;;;12.98;3.10;;;11.00;99.90;;;;;;5188020;28;20492;-81
2021/12/14 09:35:16;;;;;;;11.63;2.60;;;11.00;99.90;;;;;;5187925;28;20041;-81
2021/12/14 09:37:49;;;;;;;12.90;2.70;;;11.00;99.90;;;;;;5187998;28;20354;-81
2021/12/14 09:40:25;;;;;;;16.02;2.78;;;10.90;99.90;;;;;;5187806;28;20106;-80
2021/12/14 09:42:57;;;;;;;11.25;3.10;;;11.00;99.90;;;;;;5170304;28;20036;-81
2021/12/14 09:45:42;;;;;;;10.60;2.63;;;11.00;99.90;;;;;;5187448;28;20073;-79
2021/12/14 09:48:19;;;;;;;12.00;2.65;;;11.00;99.90;;;;;;5187872;28;20025;-81
2021/12/14 09:50:51;;;;;;;16.10;3.22;;;11.00;99.90;;;;;;5187775;28;20430;-81
2021/12/14 09:53:26;;;;;;;10.73;2.30;;;11.00;99.90;;;;;;5187699;28;20022;-80
2021/12/14 09:55:58;;;;;;;10.88;2.53;;;11.00;99.90;;;;;;5169933;28;20049;-82
2021/12/14 09:58:43;;;;;;;13.40;2.42;;;11.00;99.90;;;;;;5187492;28;20026;-81
2021/12/14 10:01:21;;;;;;;11.57;3.00;;;11.00;99.90;;;;;;5169918;28;20033;-81
2021/12/14 10:03:55;;;;;;;9.98;2.80;;;11.00;99.90;;;;;;5187386;28;20041;-81
2021/12/14 10:06:30;;;;;;;15.00;2.40;;;11.00;99.90;;;;;;5169760;28;20021;-81
2021/12/14 10:09:12;;;;;;;7.55;2.03;;;10.90;99.90;;;;;;5187343;28;20025;-82
2021/12/14 10:14:19;;;;;;;16.98;3.30;;;10.90;99.90;;;;;;5187066;28;20026;-82
2021/12/14 10:16:50;;;;;;;14.30;2.47;;;10.90;99.90;;;;;;5187234;28;20037;-81
2021/12/14 10:19:26;;;;;;;15.43;2.72;;;10.90;99.90;;;;;;5185938;28;20032;-81
2021/12/14 10:22:08;;;;;;;12.43;2.55;;;10.80;99.90;;;;;;5187072;28;20038;-81
2021/12/14 10:24:39;;;;;;;19.55;2.40;;;10.80;99.90;;;;;;5187026;28;20072;-80
2021/12/14 10:27:17;;;;;;;15.35;2.90;;;10.80;99.90;;;;;;5187126;28;20033;-81
2021/12/14 10:29:50;;;;;;;12.35;2.40;;;10.90;99.90;;;;;;5187064;28;20057;-81
2021/12/14 10:32:25;;;;;;;10.88;2.95;;;10.90;99.90;;;;;;5186861;28;20097;-81
2021/12/14 10:35:02;;;;;;;12.77;2.85;;;10.60;99.90;;;;;;5186820;28;20037;-80
2021/12/14 10:37:51;;;;;;;13.50;2.72;;;10.60;99.90;;;;;;5187164;28;20053;-80
2021/12/14 10:43:24;;;;;;;16.90;3.45;;;10.60;99.90;;;;;;5187090;28;20388;-81
2021/12/14 10:46:03;;;;;;;18.05;3.83;;;10.50;99.90;;;;;;5186683;28;20061;-80
2021/12/14 10:48:38;;;;;;;8.57;2.20;;;10.60;99.90;;;;;;5186807;28;20030;-81
2021/12/14 10:51:12;;;;;;;12.90;2.60;;;10.60;99.90;;;;;;5186802;28;20376;-82
2021/12/14 10:53:47;;;;;;;15.73;2.65;;;10.60;99.90;;;;;;5186520;28;20018;-81
2021/12/14 10:56:28;;;;;;;14.73;3.53;;;10.60;99.90;;;;;;5168948;28;20065;-81
2021/12/14 10:59:01;;;;;;;15.52;3.55;;;10.60;99.90;;;;;;5186578;28;20021;-80
2021/12/14 11:01:34;;;;;;;13.55;3.22;;;10.50;99.90;;;;;;5186657;28;20053;-81
2021/12/14 11:04:11;;;;;;;11.77;2.97;;;10.50;99.90;;;;;;5186645;28;20022;-81
2021/12/14 11:06:45;;;;;;;11.93;2.97;;;10.60;99.90;;;;;;5186508;28;20092;-81
2021/12/14 11:09:43;;;;;;;10.82;2.83;;;10.50;99.90;;;;;;5186682;28;20424;-81
2021/12/14 11:12:28;;;;;;;7.30;2.00;;;10.50;99.90;;;;;;5186462;28;20105;-82
2021/12/14 11:15:26;;;;;;;12.05;2.60;;;10.30;99.90;;;;;;5186396;28;20095;-80
2021/12/14 11:18:11;;;;;;;13.95;2.10;;;10.30;99.90;;;;;;5168734;28;20080;-82
2021/12/14 11:21:02;;;;;;;11.55;2.35;;;10.20;99.90;;;;;;5186611;28;20022;-80
2021/12/14 11:23:37;;;;;;;8.52;2.42;;;10.20;99.90;;;;;;5186373;28;20026;-81
2021/12/14 11:26:10;;;;;;;7.72;2.25;;;10.20;99.90;;;;;;5186955;28;20043;-80
2021/12/14 11:28:43;;;;;;;11.27;2.20;;;10.20;99.90;;;;;;5186826;28;20030;-81
2021/12/14 11:31:30;;;;;;;11.52;2.67;;;10.20;99.90;;;;;;5186836;28;20018;-81
2021/12/14 11:34:09;;;;;;;13.70;2.22;;;10.20;99.90;;;;;;5186870;28;20030;-80
2021/12/14 11:36:51;;;;;;;16.30;2.72;;;10.10;99.90;;;;;;5187152;28;20393;-80
2021/12/14 11:39:28;;;;;;;11.20;2.00;;;10.10;99.90;;;;;;5186856;28;20026;-80
2021/12/14 11:42:03;;;;;;;8.73;2.35;;;10.10;99.90;;;;;;5187840;28;20416;-81
2021/12/14 11:44:45;;;;;;;8.52;2.17;;;10.10;99.90;;;;;;5169142;28;20038;-81
2021/12/14 11:50:24;;;;;;;15.80;1.98;;;10.00;99.90;;;;;;5186445;28;20026;-81
2021/12/14 11:53:06;;;;;;;8.70;2.08;;;10.00;99.90;;;;;;5190244;28;20037;-81
2021/12/14 11:55:57;;;;;;;6.20;1.60;;;10.00;99.90;;;;;;5190198;28;20048;-79
2021/12/14 11:58:43;;;;;;;4.88;1.40;;;9.90;99.90;;;;;;5190146;28;20018;-80
2021/12/14 12:01:22;;;;;;;5.50;1.20;;;9.90;99.90;;;;;;5190164;28;20026;-80
2021/12/14 12:04:23;;;;;;;8.43;1.65;;;9.90;99.90;;;;;;5172474;28;20359;-80
2021/12/14 12:09:36;;;;;;;8.15;1.30;;;9.80;99.90;;;;;;5189622;28;20034;-81
2021/12/14 12:12:12;;;;;;;11.50;1.55;;;9.90;99.90;;;;;;5189576;28;20076;-79
2021/12/14 12:15:00;;;;;;;9.43;1.30;;;9.80;99.90;;;;;;5189324;28;20045;-80
2021/12/14 12:17:52;;;;;;;11.43;1.50;;;9.70;99.90;;;;;;5189520;28;20022;-80
2021/12/14 12:20:34;;;;;;;8.85;2.28;;;9.80;99.90;;;;;;5189469;28;20026;-80
2021/12/14 12:23:09;;;;;;;5.28;1.60;;;9.70;99.90;;;;;;5171789;28;20460;-79
2021/12/14 12:25:49;;;;;;;9.40;2.03;;;9.70;99.90;;;;;;5189407;28;20018;-79
2021/12/14 12:28:33;;;;;;;12.27;1.80;;;9.70;99.90;;;;;;5189528;28;20022;-79
2021/12/14 12:31:16;;;;;;;6.93;2.00;;;9.70;99.90;;;;;;5189363;28;20085;-80
2021/12/14 12:33:48;;;;;;;9.27;1.85;;;9.70;99.90;;;;;;5189384;28;20013;-80
2021/12/14 12:36:45;;;;;;;11.82;2.10;;;9.60;99.90;;;;;;5189390;28;20037;-80
2021/12/14 12:39:20;;;;;;;9.18;1.90;;;9.60;99.90;;;;;;5188257;28;20440;-81
2021/12/14 12:41:59;;;;;;;12.68;1.63;;;9.60;99.90;;;;;;5189206;28;20156;-80
2021/12/14 12:44:39;;;;;;;10.15;1.67;;;9.50;99.90;;;;;;5190056;28;20033;-79
2021/12/14 12:47:16;;;;;;;;;;;9.50;99.90;;;;;;5189722;28;20393;-80
2021/12/14 12:49:58;;;;;;;5.43;1.85;;;9.50;99.90;;;;;;5188912;28;19909;-80
2021/12/14 12:52:37;;;;;;;8.32;2.00;;;9.40;99.90;;;;;;5188935;28;20021;-80
2021/12/14 12:55:12;;;;;;;7.50;1.80;;;9.40;99.90;;;;;;5188929;28;20088;-80
2021/12/14 12:57:56;;;;;;;6.65;1.40;;;9.40;99.90;;;;;;5188952;28;20117;-79
2021/12/14 13:00:38;;;;;;;6.45;1.45;;;9.30;99.90;;;;;;5188720;28;20489;-81
2021/12/14 13:03:13;;;;;;;6.97;1.42;;;9.40;99.90;;;;;;5170999;28;20026;-80
2021/12/14 13:06:00;;;;;;;10.95;1.70;;;9.30;99.90;;;;;;5171002;28;20121;-79
2021/12/14 13:08:34;;;;;;;14.40;2.42;;;9.30;99.90;;;;;;5188666;28;20080;-79
2021/12/14 13:11:25;;;;;;;7.78;1.85;;;9.40;99.90;;;;;;5170981;28;20516;-80
2021/12/14 13:14:09;;;;;;;10.00;2.10;;;9.20;99.90;;;;;;5188459;28;20406;-79
2021/12/14 13:16:45;;;;;;;9.60;2.30;;;9.20;99.90;;;;;;5188451;28;20038;-80
2021/12/14 13:19:23;;;;;;;11.13;3.10;;;9.20;99.90;;;;;;5188469;28;20025;-80
2021/12/14 13:22:03;;;;;;;8.98;2.58;;;9.20;99.90;;;;;;5188411;28;20473;-80
2021/12/14 13:24:37;;;;;;;11.73;2.65;;;9.20;99.90;;;;;;5188510;28;20026;-80
2021/12/14 13:27:21;;;;;;;8.85;2.53;;;9.20;99.90;;;;;;5188581;28;20128;-79
2021/12/14 13:29:58;;;;;;;7.07;2.33;;;9.20;99.90;;;;;;5188522;28;20484;-81
2021/12/14 13:32:40;;;;;;;15.30;3.13;;;9.10;99.90;;;;;;5188469;28;20108;-80
2021/12/14 13:35:27;;;;;;;13.90;3.70;;;9.20;99.90;;;;;;5188355;28;20073;-80
2021/12/14 13:38:03;;;;;;;14.30;3.65;;;9.10;99.90;;;;;;5188470;28;20028;-80
2021/12/14 13:40:45;;;;;;;10.48;4.20;;;9.20;99.90;;;;;;5188171;28;20034;-80
2021/12/14 13:43:20;;;;;;;12.95;4.60;;;9.10;99.90;;;;;;5188030;28;20097;-81
2021/12/14 13:45:58;;;;;;;16.63;4.70;;;9.10;99.90;;;;;;5187834;28;20046;-80
2021/12/14 13:48:32;;;;;;;7.35;2.90;;;9.10;99.90;;;;;;5188032;28;20369;-81
2021/12/14 13:51:13;;;;;;;11.52;4.05;;;8.90;99.90;;;;;;5188031;28;20324;-81
2021/12/14 13:53:47;;;;;;;11.23;3.17;;;8.90;99.90;;;;;;5188212;28;20024;-80
2021/12/14 13:56:25;;;;;;;11.95;4.60;;;8.90;99.90;;;;;;5188034;28;20076;-81
2021/12/14 13:58:59;;;;;;;15.18;4.43;;;8.90;99.90;;;;;;5187712;28;20034;-80
2021/12/14 14:01:35;;;;;;;14.95;4.35;;;8.90;99.90;;;;;;5187629;28;20095;-81
2021/12/14 14:04:09;;;;;;;14.13;4.50;;;8.90;99.90;;;;;;5187747;28;20026;-80
2021/12/14 14:06:41;;;;;;;10.57;3.85;;;8.90;99.90;;;;;;5187815;28;20022;-79
2021/12/14 14:09:21;;;;;;;12.68;5.00;;;8.90;99.90;;;;;;5187558;28;20065;-80
2021/12/14 14:12:14;;;;;;;14.48;4.38;;;8.80;99.90;;;;;;5187620;28;20037;-80
2021/12/14 14:14:45;;;;;;;14.02;4.10;;;8.80;99.90;;;;;;5186865;28;20034;-80
2021/12/14 14:17:23;;;;;;;17.05;4.85;;;8.80;99.90;;;;;;5187430;28;20030;-80
2021/12/14 14:19:57;;;;;;;12.70;4.22;;;8.80;99.90;;;;;;5187289;28;20033;-80
2021/12/14 14:22:32;;;;;;;14.93;4.65;;;8.80;99.90;;;;;;5187163;28;20026;-80
2021/12/14 14:25:15;;;;;;;7.97;3.78;;;8.80;99.90;;;;;;5187153;28;20022;-81
2021/12/14 14:27:53;;;;;;;15.95;4.18;;;8.80;99.90;;;;;;5187214;28;20087;-80